sensor_id;sensor_type;location;lat;lon;timestamp;P1;durP1;ratioP1;P2;durP2;ratioP2
1751;SDS011;873;47.696;8.068;2023-02-12T00:00:32;17.50;;;10.13;;
1751;SDS011;873;47.696;8.068;2023-02-12T00:02:57;35.67;;;17.60;;
1751;SDS011;873;47.696;8.068;2023-02-12T00:05:23;32.67;;;15.73;;
1751;SDS011;873;47.696;8.068;2023-02-12T00:07:49;22.00;;;12.93;;
1751;SDS011;873;47.696;8.068;2023-02-12T00:10:14;18.97;;;11.13;;
1751;SDS011;873;47.696;8.068;2023-02-12T00:12:40;17.70;;;10.10;;
1751;SDS011;873;47.696;8.068;2023-02-12T00:15:06;15.70;;;9.50;;
1751;SDS011;873;47.696;8.068;2023-02-12T00:17:32;14.73;;;8.50;;
1751;SDS011;873;47.696;8.068;2023-02-12T00:19:58;16.90;;;9.67;;
1751;SDS011;873;47.696;8.068;2023-02-12T00:22:23;15.93;;;9.40;;
1751;SDS011;873;47.696;8.068;2023-02-12T00:24:49;19.47;;;10.60;;
1751;SDS011;873;47.696;8.068;2023-02-12T00:27:14;22.43;;;10.03;;
1751;SDS011;873;47.696;8.068;2023-02-12T00:29:40;16.43;;;9.57;;
1751;SDS011;873;47.696;8.068;2023-02-12T00:32:05;15.27;;;9.30;;
1751;SDS011;873;47.696;8.068;2023-02-12T00:34:31;13.70;;;8.30;;
1751;SDS011;873;47.696;8.068;2023-02-12T00:36:57;14.73;;;9.23;;
1751;SDS011;873;47.696;8.068;2023-02-12T00:39:23;16.03;;;8.40;;
1751;SDS011;873;47.696;8.068;2023-02-12T00:41:48;14.93;;;8.73;;
1751;SDS011;873;47.696;8.068;2023-02-12T00:44:14;15.97;;;8.60;;
1751;SDS011;873;47.696;8.068;2023-02-12T00:46:39;13.13;;;9.27;;
1751;SDS011;873;47.696;8.068;2023-02-12T00:49:05;14.53;;;8.87;;
1751;SDS011;873;47.696;8.068;2023-02-12T00:51:30;15.63;;;8.43;;
1751;SDS011;873;47.696;8.068;2023-02-12T00:53:56;14.93;;;9.17;;
1751;SDS011;873;47.696;8.068;2023-02-12T00:56:21;14.23;;;8.53;;
1751;SDS011;873;47.696;8.068;2023-02-12T00:58:47;19.10;;;9.40;;
1751;SDS011;873;47.696;8.068;2023-02-12T01:01:12;15.37;;;8.50;;
1751;SDS011;873;47.696;8.068;2023-02-12T01:03:38;12.83;;;8.70;;
1751;SDS011;873;47.696;8.068;2023-02-12T01:06:04;15.60;;;9.27;;
1751;SDS011;873;47.696;8.068;2023-02-12T01:08:30;14.73;;;8.87;;
1751;SDS011;873;47.696;8.068;2023-02-12T01:10:57;13.37;;;8.57;;
1751;SDS011;873;47.696;8.068;2023-02-12T01:13:24;15.53;;;9.17;;
1751;SDS011;873;47.696;8.068;2023-02-12T01:15:59;16.30;;;9.57;;
1751;SDS011;873;47.696;8.068;2023-02-12T01:18:27;16.93;;;9.80;;
1751;SDS011;873;47.696;8.068;2023-02-12T01:20:52;13.23;;;8.87;;
1751;SDS011;873;47.696;8.068;2023-02-12T01:23:18;14.33;;;9.37;;
1751;SDS011;873;47.696;8.068;2023-02-12T01:25:43;18.00;;;10.60;;
1751;SDS011;873;47.696;8.068;2023-02-12T01:28:09;18.47;;;10.40;;
1751;SDS011;873;47.696;8.068;2023-02-12T01:30:35;16.83;;;9.63;;
1751;SDS011;873;47.696;8.068;2023-02-12T01:33:00;16.43;;;10.77;;
1751;SDS011;873;47.696;8.068;2023-02-12T01:35:26;17.73;;;10.83;;
1751;SDS011;873;47.696;8.068;2023-02-12T01:37:52;17.20;;;10.73;;
1751;SDS011;873;47.696;8.068;2023-02-12T01:40:17;16.53;;;10.50;;
1751;SDS011;873;47.696;8.068;2023-02-12T01:42:43;19.57;;;10.10;;
1751;SDS011;873;47.696;8.068;2023-02-12T01:47:49;18.77;;;10.83;;
1751;SDS011;873;47.696;8.068;2023-02-12T01:50:16;16.80;;;10.23;;
1751;SDS011;873;47.696;8.068;2023-02-12T01:52:47;17.87;;;10.80;;
1751;SDS011;873;47.696;8.068;2023-02-12T01:55:16;20.30;;;10.70;;
1751;SDS011;873;47.696;8.068;2023-02-12T01:57:43;20.37;;;10.57;;
1751;SDS011;873;47.696;8.068;2023-02-12T02:00:12;16.20;;;10.30;;
1751;SDS011;873;47.696;8.068;2023-02-12T02:02:41;16.73;;;10.57;;
1751;SDS011;873;47.696;8.068;2023-02-12T02:05:07;19.10;;;10.13;;
1751;SDS011;873;47.696;8.068;2023-02-12T02:07:33;14.73;;;9.73;;
1751;SDS011;873;47.696;8.068;2023-02-12T02:09:58;15.83;;;8.97;;
1751;SDS011;873;47.696;8.068;2023-02-12T02:12:24;18.13;;;10.37;;
1751;SDS011;873;47.696;8.068;2023-02-12T02:15:10;17.40;;;10.48;;
1751;SDS011;873;47.696;8.068;2023-02-12T02:23:11;16.10;;;8.70;;
1751;SDS011;873;47.696;8.068;2023-02-12T02:34:06;15.55;;;9.63;;
1751;SDS011;873;47.696;8.068;2023-02-12T02:36:45;11.90;;;7.93;;
1751;SDS011;873;47.696;8.068;2023-02-12T02:42:21;18.98;;;8.88;;
1751;SDS011;873;47.696;8.068;2023-02-12T02:44:52;15.38;;;8.95;;
1751;SDS011;873;47.696;8.068;2023-02-12T02:47:20;15.38;;;8.50;;
1751;SDS011;873;47.696;8.068;2023-02-12T02:49:50;14.90;;;9.60;;
1751;SDS011;873;47.696;8.068;2023-02-12T02:52:21;14.80;;;8.48;;
1751;SDS011;873;47.696;8.068;2023-02-12T02:54:53;13.73;;;8.77;;
1751;SDS011;873;47.696;8.068;2023-02-12T02:57:26;16.30;;;10.25;;
1751;SDS011;873;47.696;8.068;2023-02-12T02:59:54;17.38;;;9.50;;
1751;SDS011;873;47.696;8.068;2023-02-12T03:02:34;15.45;;;9.40;;
1751;SDS011;873;47.696;8.068;2023-02-12T03:05:03;17.30;;;9.93;;
1751;SDS011;873;47.696;8.068;2023-02-12T03:07:49;12.40;;;8.32;;
1751;SDS011;873;47.696;8.068;2023-02-12T03:10:19;15.32;;;8.32;;
1751;SDS011;873;47.696;8.068;2023-02-12T03:18:19;18.55;;;8.38;;
1751;SDS011;873;47.696;8.068;2023-02-12T03:20:49;15.25;;;8.30;;
1751;SDS011;873;47.696;8.068;2023-02-12T03:23:19;16.73;;;9.77;;
1751;SDS011;873;47.696;8.068;2023-02-12T03:25:49;17.52;;;10.30;;
1751;SDS011;873;47.696;8.068;2023-02-12T03:28:35;15.80;;;9.38;;
1751;SDS011;873;47.696;8.068;2023-02-12T03:31:06;22.45;;;10.18;;
1751;SDS011;873;47.696;8.068;2023-02-12T03:37:09;15.77;;;9.97;;
1751;SDS011;873;47.696;8.068;2023-02-12T03:39:56;22.38;;;11.05;;
1751;SDS011;873;47.696;8.068;2023-02-12T03:42:38;19.08;;;10.73;;
1751;SDS011;873;47.696;8.068;2023-02-12T03:47:50;15.80;;;9.82;;
1751;SDS011;873;47.696;8.068;2023-02-12T03:50:41;19.50;;;9.70;;
1751;SDS011;873;47.696;8.068;2023-02-12T03:53:15;21.90;;;11.05;;
1751;SDS011;873;47.696;8.068;2023-02-12T03:55:41;16.63;;;10.90;;
1751;SDS011;873;47.696;8.068;2023-02-12T03:58:08;18.52;;;10.93;;
1751;SDS011;873;47.696;8.068;2023-02-12T04:00:36;19.23;;;11.07;;
1751;SDS011;873;47.696;8.068;2023-02-12T04:03:03;23.02;;;12.50;;
1751;SDS011;873;47.696;8.068;2023-02-12T04:05:29;21.33;;;11.53;;
1751;SDS011;873;47.696;8.068;2023-02-12T04:07:55;21.60;;;11.30;;
1751;SDS011;873;47.696;8.068;2023-02-12T04:10:23;23.98;;;12.57;;
1751;SDS011;873;47.696;8.068;2023-02-12T04:12:56;22.58;;;11.95;;
1751;SDS011;873;47.696;8.068;2023-02-12T04:18:09;21.35;;;11.52;;
1751;SDS011;873;47.696;8.068;2023-02-12T04:26:16;19.20;;;11.73;;
1751;SDS011;873;47.696;8.068;2023-02-12T04:31:36;21.02;;;11.32;;
1751;SDS011;873;47.696;8.068;2023-02-12T04:39:34;20.05;;;10.88;;
1751;SDS011;873;47.696;8.068;2023-02-12T04:42:01;20.73;;;11.40;;
1751;SDS011;873;47.696;8.068;2023-02-12T04:44:28;15.60;;;9.13;;
1751;SDS011;873;47.696;8.068;2023-02-12T04:46:56;16.65;;;8.88;;
1751;SDS011;873;47.696;8.068;2023-02-12T04:49:22;20.37;;;10.27;;
1751;SDS011;873;47.696;8.068;2023-02-12T04:51:48;18.02;;;10.25;;
1751;SDS011;873;47.696;8.068;2023-02-12T04:54:15;17.85;;;9.80;;
1751;SDS011;873;47.696;8.068;2023-02-12T04:56:41;17.33;;;10.65;;
1751;SDS011;873;47.696;8.068;2023-02-12T04:59:07;21.10;;;11.07;;
1751;SDS011;873;47.696;8.068;2023-02-12T05:01:34;16.13;;;10.27;;
1751;SDS011;873;47.696;8.068;2023-02-12T05:04:01;17.75;;;10.40;;
1751;SDS011;873;47.696;8.068;2023-02-12T05:06:26;22.17;;;11.27;;
1751;SDS011;873;47.696;8.068;2023-02-12T05:08:54;18.10;;;9.70;;
1751;SDS011;873;47.696;8.068;2023-02-12T05:11:20;21.43;;;11.10;;
1751;SDS011;873;47.696;8.068;2023-02-12T05:13:47;18.53;;;10.63;;
1751;SDS011;873;47.696;8.068;2023-02-12T05:16:14;17.60;;;10.40;;
1751;SDS011;873;47.696;8.068;2023-02-12T05:18:40;18.15;;;10.23;;
1751;SDS011;873;47.696;8.068;2023-02-12T05:21:06;20.57;;;9.23;;
1751;SDS011;873;47.696;8.068;2023-02-12T05:23:33;16.77;;;9.70;;
1751;SDS011;873;47.696;8.068;2023-02-12T05:26:00;15.05;;;9.43;;
1751;SDS011;873;47.696;8.068;2023-02-12T05:28:28;15.32;;;9.63;;
1751;SDS011;873;47.696;8.068;2023-02-12T05:30:54;21.50;;;10.33;;
1751;SDS011;873;47.696;8.068;2023-02-12T05:33:19;20.77;;;9.67;;
1751;SDS011;873;47.696;8.068;2023-02-12T05:35:45;13.97;;;8.70;;
1751;SDS011;873;47.696;8.068;2023-02-12T05:38:11;18.13;;;9.33;;
1751;SDS011;873;47.696;8.068;2023-02-12T05:40:36;19.87;;;9.40;;
1751;SDS011;873;47.696;8.068;2023-02-12T05:43:04;15.65;;;9.05;;
1751;SDS011;873;47.696;8.068;2023-02-12T05:45:31;16.10;;;9.43;;
1751;SDS011;873;47.696;8.068;2023-02-12T05:47:57;13.65;;;8.18;;
1751;SDS011;873;47.696;8.068;2023-02-12T05:50:22;13.27;;;7.60;;
1751;SDS011;873;47.696;8.068;2023-02-12T05:52:48;14.80;;;9.03;;
1751;SDS011;873;47.696;8.068;2023-02-12T05:55:13;12.77;;;7.87;;
1751;SDS011;873;47.696;8.068;2023-02-12T05:57:39;12.43;;;7.77;;
1751;SDS011;873;47.696;8.068;2023-02-12T06:00:05;13.33;;;8.47;;
1751;SDS011;873;47.696;8.068;2023-02-12T06:02:32;17.60;;;7.70;;
1751;SDS011;873;47.696;8.068;2023-02-12T06:04:58;11.75;;;7.50;;
1751;SDS011;873;47.696;8.068;2023-02-12T06:07:23;11.37;;;7.30;;
1751;SDS011;873;47.696;8.068;2023-02-12T06:09:49;11.33;;;6.87;;
1751;SDS011;873;47.696;8.068;2023-02-12T06:12:15;11.43;;;7.20;;
1751;SDS011;873;47.696;8.068;2023-02-12T06:14:40;10.63;;;5.67;;
1751;SDS011;873;47.696;8.068;2023-02-12T06:17:06;10.20;;;6.23;;
1751;SDS011;873;47.696;8.068;2023-02-12T06:19:32;14.43;;;7.57;;
1751;SDS011;873;47.696;8.068;2023-02-12T06:21:57;13.37;;;6.80;;
1751;SDS011;873;47.696;8.068;2023-02-12T06:24:23;11.27;;;7.00;;
1751;SDS011;873;47.696;8.068;2023-02-12T06:26:49;12.53;;;6.63;;
1751;SDS011;873;47.696;8.068;2023-02-12T06:29:15;10.48;;;6.45;;
1751;SDS011;873;47.696;8.068;2023-02-12T06:31:42;10.50;;;6.55;;
1751;SDS011;873;47.696;8.068;2023-02-12T06:34:08;14.10;;;6.77;;
1751;SDS011;873;47.696;8.068;2023-02-12T06:36:36;10.60;;;6.30;;
1751;SDS011;873;47.696;8.068;2023-02-12T06:39:02;12.45;;;7.20;;
1751;SDS011;873;47.696;8.068;2023-02-12T06:41:28;12.40;;;7.33;;
1751;SDS011;873;47.696;8.068;2023-02-12T06:43:54;9.90;;;6.10;;
1751;SDS011;873;47.696;8.068;2023-02-12T06:46:19;12.80;;;7.10;;
1751;SDS011;873;47.696;8.068;2023-02-12T06:48:45;13.40;;;7.33;;
1751;SDS011;873;47.696;8.068;2023-02-12T06:51:12;12.87;;;6.93;;
1751;SDS011;873;47.696;8.068;2023-02-12T06:53:40;12.85;;;6.53;;
1751;SDS011;873;47.696;8.068;2023-02-12T06:56:06;14.13;;;7.55;;
1751;SDS011;873;47.696;8.068;2023-02-12T06:58:35;10.40;;;6.57;;
1751;SDS011;873;47.696;8.068;2023-02-12T07:01:18;14.48;;;7.03;;
1751;SDS011;873;47.696;8.068;2023-02-12T07:03:47;9.82;;;5.68;;
1751;SDS011;873;47.696;8.068;2023-02-12T07:06:14;11.13;;;6.22;;
1751;SDS011;873;47.696;8.068;2023-02-12T07:08:40;16.10;;;6.93;;
1751;SDS011;873;47.696;8.068;2023-02-12T07:11:06;12.93;;;5.97;;
1751;SDS011;873;47.696;8.068;2023-02-12T07:13:32;15.70;;;7.28;;
1751;SDS011;873;47.696;8.068;2023-02-12T07:16:03;14.68;;;6.38;;
1751;SDS011;873;47.696;8.068;2023-02-12T07:18:29;13.65;;;6.82;;
1751;SDS011;873;47.696;8.068;2023-02-12T07:20:55;11.43;;;6.63;;
1751;SDS011;873;47.696;8.068;2023-02-12T07:23:21;10.87;;;5.33;;
1751;SDS011;873;47.696;8.068;2023-02-12T07:26:03;11.40;;;5.80;;
1751;SDS011;873;47.696;8.068;2023-02-12T07:28:32;12.85;;;5.93;;
1751;SDS011;873;47.696;8.068;2023-02-12T07:30:58;10.27;;;5.65;;
1751;SDS011;873;47.696;8.068;2023-02-12T07:33:25;8.83;;;5.40;;
1751;SDS011;873;47.696;8.068;2023-02-12T07:35:50;12.30;;;6.07;;
1751;SDS011;873;47.696;8.068;2023-02-12T07:38:16;10.87;;;5.87;;
1751;SDS011;873;47.696;8.068;2023-02-12T07:40:41;9.07;;;6.07;;
1751;SDS011;873;47.696;8.068;2023-02-12T07:43:07;7.40;;;4.97;;
1751;SDS011;873;47.696;8.068;2023-02-12T07:45:32;12.13;;;6.43;;
1751;SDS011;873;47.696;8.068;2023-02-12T07:47:58;9.40;;;5.77;;
1751;SDS011;873;47.696;8.068;2023-02-12T07:50:23;8.53;;;6.43;;
1751;SDS011;873;47.696;8.068;2023-02-12T07:52:49;12.87;;;6.60;;
1751;SDS011;873;47.696;8.068;2023-02-12T07:55:15;10.03;;;5.23;;
1751;SDS011;873;47.696;8.068;2023-02-12T07:57:41;10.97;;;6.33;;
1751;SDS011;873;47.696;8.068;2023-02-12T08:00:07;11.43;;;6.33;;
1751;SDS011;873;47.696;8.068;2023-02-12T08:02:33;11.63;;;6.53;;
1751;SDS011;873;47.696;8.068;2023-02-12T08:04:59;10.33;;;6.53;;
1751;SDS011;873;47.696;8.068;2023-02-12T08:07:24;10.13;;;6.13;;
1751;SDS011;873;47.696;8.068;2023-02-12T08:09:50;9.63;;;5.97;;
1751;SDS011;873;47.696;8.068;2023-02-12T08:12:16;9.17;;;6.03;;
1751;SDS011;873;47.696;8.068;2023-02-12T08:14:42;9.37;;;6.07;;
1751;SDS011;873;47.696;8.068;2023-02-12T08:17:08;9.00;;;5.63;;
1751;SDS011;873;47.696;8.068;2023-02-12T08:19:34;8.70;;;5.57;;
1751;SDS011;873;47.696;8.068;2023-02-12T08:22:00;9.87;;;5.67;;
1751;SDS011;873;47.696;8.068;2023-02-12T08:24:27;12.47;;;5.93;;
1751;SDS011;873;47.696;8.068;2023-02-12T08:26:53;9.13;;;5.70;;
1751;SDS011;873;47.696;8.068;2023-02-12T08:29:24;7.53;;;5.00;;
1751;SDS011;873;47.696;8.068;2023-02-12T08:32:00;8.40;;;5.50;;
1751;SDS011;873;47.696;8.068;2023-02-12T08:34:28;8.23;;;5.10;;
1751;SDS011;873;47.696;8.068;2023-02-12T08:36:55;8.23;;;4.47;;
1751;SDS011;873;47.696;8.068;2023-02-12T08:39:21;6.50;;;4.37;;
1751;SDS011;873;47.696;8.068;2023-02-12T08:41:48;6.53;;;4.43;;
1751;SDS011;873;47.696;8.068;2023-02-12T08:44:14;5.73;;;3.77;;
1751;SDS011;873;47.696;8.068;2023-02-12T08:46:43;6.03;;;3.53;;
1751;SDS011;873;47.696;8.068;2023-02-12T08:49:13;4.70;;;3.37;;
1751;SDS011;873;47.696;8.068;2023-02-12T08:51:42;5.60;;;3.40;;
1751;SDS011;873;47.696;8.068;2023-02-12T08:54:10;6.13;;;3.70;;
1751;SDS011;873;47.696;8.068;2023-02-12T08:56:37;6.33;;;3.50;;
1751;SDS011;873;47.696;8.068;2023-02-12T08:59:04;5.73;;;3.50;;
1751;SDS011;873;47.696;8.068;2023-02-12T09:01:32;5.53;;;3.40;;
1751;SDS011;873;47.696;8.068;2023-02-12T09:03:58;5.53;;;3.37;;
1751;SDS011;873;47.696;8.068;2023-02-12T09:06:25;5.17;;;3.73;;
1751;SDS011;873;47.696;8.068;2023-02-12T09:08:51;4.70;;;3.40;;
1751;SDS011;873;47.696;8.068;2023-02-12T09:11:20;5.33;;;3.30;;
1751;SDS011;873;47.696;8.068;2023-02-12T09:13:50;4.60;;;3.00;;
1751;SDS011;873;47.696;8.068;2023-02-12T09:16:17;4.80;;;2.60;;
1751;SDS011;873;47.696;8.068;2023-02-12T09:18:42;4.90;;;3.00;;
1751;SDS011;873;47.696;8.068;2023-02-12T09:21:10;3.63;;;2.53;;
1751;SDS011;873;47.696;8.068;2023-02-12T09:23:38;4.47;;;2.87;;
1751;SDS011;873;47.696;8.068;2023-02-12T09:26:04;4.93;;;3.60;;
1751;SDS011;873;47.696;8.068;2023-02-12T09:28:32;3.67;;;2.67;;
1751;SDS011;873;47.696;8.068;2023-02-12T09:30:58;4.03;;;2.50;;
1751;SDS011;873;47.696;8.068;2023-02-12T09:33:23;3.50;;;2.37;;
1751;SDS011;873;47.696;8.068;2023-02-12T09:35:49;3.77;;;2.40;;
1751;SDS011;873;47.696;8.068;2023-02-12T09:38:15;4.57;;;2.80;;
1751;SDS011;873;47.696;8.068;2023-02-12T09:43:48;5.27;;;2.90;;
1751;SDS011;873;47.696;8.068;2023-02-12T09:52:13;6.13;;;2.83;;
1751;SDS011;873;47.696;8.068;2023-02-12T09:54:45;3.90;;;2.80;;
1751;SDS011;873;47.696;8.068;2023-02-12T09:57:16;3.67;;;2.70;;
1751;SDS011;873;47.696;8.068;2023-02-12T09:59:46;4.10;;;2.90;;
1751;SDS011;873;47.696;8.068;2023-02-12T10:02:16;3.43;;;2.53;;
1751;SDS011;873;47.696;8.068;2023-02-12T10:04:43;3.73;;;2.40;;
1751;SDS011;873;47.696;8.068;2023-02-12T10:23:34;3.27;;;1.93;;
1751;SDS011;873;47.696;8.068;2023-02-12T10:26:22;2.60;;;1.73;;
1751;SDS011;873;47.696;8.068;2023-02-12T10:28:51;2.77;;;1.80;;
1751;SDS011;873;47.696;8.068;2023-02-12T10:31:20;2.37;;;1.93;;
1751;SDS011;873;47.696;8.068;2023-02-12T10:33:50;2.57;;;1.80;;
1751;SDS011;873;47.696;8.068;2023-02-12T10:39:11;2.23;;;1.40;;
1751;SDS011;873;47.696;8.068;2023-02-12T10:44:22;1.50;;;1.10;;
1751;SDS011;873;47.696;8.068;2023-02-12T10:46:48;2.00;;;1.33;;
1751;SDS011;873;47.696;8.068;2023-02-12T10:49:15;1.97;;;1.30;;
1751;SDS011;873;47.696;8.068;2023-02-12T10:54:52;1.50;;;1.10;;
1751;SDS011;873;47.696;8.068;2023-02-12T10:57:19;1.60;;;1.00;;
1751;SDS011;873;47.696;8.068;2023-02-12T10:59:48;1.73;;;1.00;;
1751;SDS011;873;47.696;8.068;2023-02-12T11:04:57;1.10;;;1.00;;
1751;SDS011;873;47.696;8.068;2023-02-12T11:07:24;1.50;;;1.03;;
1751;SDS011;873;47.696;8.068;2023-02-12T11:09:52;0.90;;;0.80;;
1751;SDS011;873;47.696;8.068;2023-02-12T11:17:44;1.10;;;1.00;;
1751;SDS011;873;47.696;8.068;2023-02-12T11:20:22;1.40;;;0.93;;
1751;SDS011;873;47.696;8.068;2023-02-12T11:22:50;1.10;;;0.90;;
1751;SDS011;873;47.696;8.068;2023-02-12T11:25:29;1.93;;;0.80;;
1751;SDS011;873;47.696;8.068;2023-02-12T11:27:59;1.30;;;1.00;;
1751;SDS011;873;47.696;8.068;2023-02-12T11:30:26;1.10;;;0.90;;
1751;SDS011;873;47.696;8.068;2023-02-12T11:32:52;1.43;;;1.00;;
1751;SDS011;873;47.696;8.068;2023-02-12T11:35:19;0.97;;;0.73;;
1751;SDS011;873;47.696;8.068;2023-02-12T11:37:53;1.30;;;1.00;;
1751;SDS011;873;47.696;8.068;2023-02-12T11:40:21;1.80;;;1.23;;
1751;SDS011;873;47.696;8.068;2023-02-12T11:42:50;1.47;;;0.97;;
1751;SDS011;873;47.696;8.068;2023-02-12T11:45:19;1.10;;;1.00;;
1751;SDS011;873;47.696;8.068;2023-02-12T11:47:46;1.47;;;0.83;;
1751;SDS011;873;47.696;8.068;2023-02-12T11:52:54;1.50;;;1.00;;
1751;SDS011;873;47.696;8.068;2023-02-12T11:55:27;1.73;;;1.00;;
1751;SDS011;873;47.696;8.068;2023-02-12T12:00:42;1.50;;;0.90;;
1751;SDS011;873;47.696;8.068;2023-02-12T12:06:04;1.27;;;0.80;;
1751;SDS011;873;47.696;8.068;2023-02-12T12:16:48;0.93;;;0.80;;
1751;SDS011;873;47.696;8.068;2023-02-12T12:20:03;1.10;;;0.80;;
1751;SDS011;873;47.696;8.068;2023-02-12T12:22:43;1.00;;;0.90;;
1751;SDS011;873;47.696;8.068;2023-02-12T12:25:31;0.83;;;0.60;;
1751;SDS011;873;47.696;8.068;2023-02-12T12:33:21;1.10;;;1.00;;
1751;SDS011;873;47.696;8.068;2023-02-12T12:47:48;1.27;;;1.10;;
1751;SDS011;873;47.696;8.068;2023-02-12T12:58:43;2.03;;;0.90;;
1751;SDS011;873;47.696;8.068;2023-02-12T13:27:03;1.63;;;0.70;;
1751;SDS011;873;47.696;8.068;2023-02-12T13:29:34;0.70;;;0.70;;
1751;SDS011;873;47.696;8.068;2023-02-12T13:32:05;1.30;;;0.63;;
1751;SDS011;873;47.696;8.068;2023-02-12T13:34:36;1.00;;;0.77;;
1751;SDS011;873;47.696;8.068;2023-02-12T13:37:03;0.93;;;0.70;;
1751;SDS011;873;47.696;8.068;2023-02-12T13:39:31;0.90;;;0.60;;
1751;SDS011;873;47.696;8.068;2023-02-12T13:47:32;0.73;;;0.67;;
1751;SDS011;873;47.696;8.068;2023-02-12T13:50:18;1.07;;;0.80;;
1751;SDS011;873;47.696;8.068;2023-02-12T13:53:01;1.03;;;0.90;;
1751;SDS011;873;47.696;8.068;2023-02-12T13:55:54;1.23;;;0.70;;
1751;SDS011;873;47.696;8.068;2023-02-12T13:58:45;1.20;;;0.83;;
1751;SDS011;873;47.696;8.068;2023-02-12T14:01:33;1.03;;;0.93;;
1751;SDS011;873;47.696;8.068;2023-02-12T14:07:00;1.03;;;0.90;;
1751;SDS011;873;47.696;8.068;2023-02-12T14:09:34;1.60;;;1.10;;
1751;SDS011;873;47.696;8.068;2023-02-12T14:15:08;1.50;;;1.10;;
1751;SDS011;873;47.696;8.068;2023-02-12T14:17:54;1.20;;;1.00;;
1751;SDS011;873;47.696;8.068;2023-02-12T14:20:28;1.90;;;1.10;;
1751;SDS011;873;47.696;8.068;2023-02-12T14:23:00;1.93;;;1.23;;
1751;SDS011;873;47.696;8.068;2023-02-12T14:28:51;1.10;;;1.00;;
1751;SDS011;873;47.696;8.068;2023-02-12T14:36:47;1.40;;;1.30;;
1751;SDS011;873;47.696;8.068;2023-02-12T14:45:25;1.80;;;1.50;;
1751;SDS011;873;47.696;8.068;2023-02-12T14:47:54;1.83;;;1.60;;
1751;SDS011;873;47.696;8.068;2023-02-12T14:50:21;1.87;;;1.60;;
1751;SDS011;873;47.696;8.068;2023-02-12T14:52:52;1.97;;;1.67;;
1751;SDS011;873;47.696;8.068;2023-02-12T14:55:21;2.10;;;1.73;;
1751;SDS011;873;47.696;8.068;2023-02-12T14:57:54;2.07;;;1.80;;
1751;SDS011;873;47.696;8.068;2023-02-12T15:00:26;2.17;;;1.93;;
1751;SDS011;873;47.696;8.068;2023-02-12T15:02:56;3.20;;;2.30;;
1751;SDS011;873;47.696;8.068;2023-02-12T15:05:46;2.83;;;2.27;;
1751;SDS011;873;47.696;8.068;2023-02-12T15:16:21;3.00;;;2.47;;
1751;SDS011;873;47.696;8.068;2023-02-12T15:19:00;4.77;;;2.50;;
1751;SDS011;873;47.696;8.068;2023-02-12T15:21:30;3.67;;;2.60;;
1751;SDS011;873;47.696;8.068;2023-02-12T15:26:38;8.27;;;5.30;;
1751;SDS011;873;47.696;8.068;2023-02-12T15:29:06;7.63;;;5.73;;
1751;SDS011;873;47.696;8.068;2023-02-12T15:31:38;9.00;;;6.30;;
1751;SDS011;873;47.696;8.068;2023-02-12T15:34:30;9.30;;;6.40;;
1751;SDS011;873;47.696;8.068;2023-02-12T15:36:59;8.70;;;6.37;;
1751;SDS011;873;47.696;8.068;2023-02-12T15:39:26;9.60;;;6.53;;
1751;SDS011;873;47.696;8.068;2023-02-12T15:42:00;7.37;;;6.07;;
1751;SDS011;873;47.696;8.068;2023-02-12T15:44:26;10.47;;;6.90;;
1751;SDS011;873;47.696;8.068;2023-02-12T15:47:12;9.47;;;6.13;;
1751;SDS011;873;47.696;8.068;2023-02-12T15:49:40;7.83;;;5.87;;
1751;SDS011;873;47.696;8.068;2023-02-12T15:52:07;8.60;;;5.87;;
1751;SDS011;873;47.696;8.068;2023-02-12T15:54:35;9.20;;;6.60;;
1751;SDS011;873;47.696;8.068;2023-02-12T15:57:08;9.30;;;6.73;;
1751;SDS011;873;47.696;8.068;2023-02-12T15:59:34;8.00;;;5.97;;
1751;SDS011;873;47.696;8.068;2023-02-12T16:02:01;9.87;;;6.27;;
1751;SDS011;873;47.696;8.068;2023-02-12T16:04:31;8.83;;;6.77;;
1751;SDS011;873;47.696;8.068;2023-02-12T16:07:00;9.93;;;6.83;;
1751;SDS011;873;47.696;8.068;2023-02-12T16:09:30;8.77;;;5.97;;
1751;SDS011;873;47.696;8.068;2023-02-12T16:11:59;9.87;;;6.63;;
1751;SDS011;873;47.696;8.068;2023-02-12T16:17:16;8.60;;;6.87;;
1751;SDS011;873;47.696;8.068;2023-02-12T16:19:52;6.80;;;5.13;;
1751;SDS011;873;47.696;8.068;2023-02-12T16:22:29;4.37;;;3.37;;
1751;SDS011;873;47.696;8.068;2023-02-12T16:24:57;6.40;;;4.63;;
1751;SDS011;873;47.696;8.068;2023-02-12T16:27:26;5.27;;;3.87;;
1751;SDS011;873;47.696;8.068;2023-02-12T16:29:56;4.30;;;3.33;;
1751;SDS011;873;47.696;8.068;2023-02-12T16:32:26;4.17;;;3.23;;
1751;SDS011;873;47.696;8.068;2023-02-12T16:35:04;4.00;;;3.40;;
1751;SDS011;873;47.696;8.068;2023-02-12T16:37:51;4.97;;;2.60;;
1751;SDS011;873;47.696;8.068;2023-02-12T16:40:23;3.33;;;2.83;;
1751;SDS011;873;47.696;8.068;2023-02-12T16:48:07;5.43;;;2.97;;
1751;SDS011;873;47.696;8.068;2023-02-12T16:50:38;3.63;;;2.90;;
1751;SDS011;873;47.696;8.068;2023-02-12T16:53:21;3.77;;;2.70;;
1751;SDS011;873;47.696;8.068;2023-02-12T16:56:08;5.97;;;2.93;;
1751;SDS011;873;47.696;8.068;2023-02-12T16:58:39;4.93;;;2.83;;
1751;SDS011;873;47.696;8.068;2023-02-12T17:01:05;5.17;;;2.87;;
1751;SDS011;873;47.696;8.068;2023-02-12T17:03:31;3.50;;;2.30;;
1751;SDS011;873;47.696;8.068;2023-02-12T17:05:57;4.23;;;2.97;;
1751;SDS011;873;47.696;8.068;2023-02-12T17:08:23;3.03;;;2.33;;
1751;SDS011;873;47.696;8.068;2023-02-12T17:10:49;3.10;;;2.67;;
1751;SDS011;873;47.696;8.068;2023-02-12T17:13:15;3.30;;;2.30;;
1751;SDS011;873;47.696;8.068;2023-02-12T17:15:44;3.40;;;2.83;;
1751;SDS011;873;47.696;8.068;2023-02-12T17:18:16;4.37;;;2.70;;
1751;SDS011;873;47.696;8.068;2023-02-12T17:20:43;3.73;;;2.70;;
1751;SDS011;873;47.696;8.068;2023-02-12T17:23:11;3.60;;;2.67;;
1751;SDS011;873;47.696;8.068;2023-02-12T17:25:37;3.67;;;3.30;;
1751;SDS011;873;47.696;8.068;2023-02-12T17:28:02;3.53;;;3.20;;
1751;SDS011;873;47.696;8.068;2023-02-12T17:30:28;3.40;;;2.57;;
1751;SDS011;873;47.696;8.068;2023-02-12T17:32:54;3.90;;;2.40;;
1751;SDS011;873;47.696;8.068;2023-02-12T17:35:20;3.67;;;2.60;;
1751;SDS011;873;47.696;8.068;2023-02-12T17:37:47;3.17;;;2.17;;
1751;SDS011;873;47.696;8.068;2023-02-12T17:40:13;4.30;;;2.50;;
1751;SDS011;873;47.696;8.068;2023-02-12T17:42:39;3.87;;;2.93;;
1751;SDS011;873;47.696;8.068;2023-02-12T17:45:04;3.33;;;2.10;;
1751;SDS011;873;47.696;8.068;2023-02-12T17:47:31;3.70;;;2.57;;
1751;SDS011;873;47.696;8.068;2023-02-12T17:49:59;5.13;;;3.27;;
1751;SDS011;873;47.696;8.068;2023-02-12T17:52:27;5.90;;;3.37;;
1751;SDS011;873;47.696;8.068;2023-02-12T17:54:52;4.63;;;2.77;;
1751;SDS011;873;47.696;8.068;2023-02-12T17:57:18;4.10;;;2.93;;
1751;SDS011;873;47.696;8.068;2023-02-12T17:59:43;3.97;;;2.80;;
1751;SDS011;873;47.696;8.068;2023-02-12T18:02:10;5.43;;;3.50;;
1751;SDS011;873;47.696;8.068;2023-02-12T18:04:36;3.53;;;2.80;;
1751;SDS011;873;47.696;8.068;2023-02-12T18:07:04;3.77;;;2.60;;
1751;SDS011;873;47.696;8.068;2023-02-12T18:09:30;4.40;;;3.23;;
1751;SDS011;873;47.696;8.068;2023-02-12T18:11:56;5.10;;;3.90;;
1751;SDS011;873;47.696;8.068;2023-02-12T18:14:22;4.70;;;3.63;;
1751;SDS011;873;47.696;8.068;2023-02-12T18:16:47;4.30;;;3.23;;
1751;SDS011;873;47.696;8.068;2023-02-12T18:19:13;3.60;;;3.30;;
1751;SDS011;873;47.696;8.068;2023-02-12T18:21:39;4.23;;;3.00;;
1751;SDS011;873;47.696;8.068;2023-02-12T18:24:05;4.13;;;3.17;;
1751;SDS011;873;47.696;8.068;2023-02-12T18:26:31;4.07;;;3.03;;
1751;SDS011;873;47.696;8.068;2023-02-12T18:28:58;4.60;;;3.37;;
1751;SDS011;873;47.696;8.068;2023-02-12T18:31:24;6.13;;;3.73;;
1751;SDS011;873;47.696;8.068;2023-02-12T18:33:50;4.97;;;3.80;;
1751;SDS011;873;47.696;8.068;2023-02-12T18:36:16;7.53;;;4.20;;
1751;SDS011;873;47.696;8.068;2023-02-12T18:38:44;5.20;;;3.37;;
1751;SDS011;873;47.696;8.068;2023-02-12T18:41:13;5.30;;;3.70;;
1751;SDS011;873;47.696;8.068;2023-02-12T18:43:40;4.67;;;3.53;;
1751;SDS011;873;47.696;8.068;2023-02-12T18:46:07;5.00;;;3.17;;
1751;SDS011;873;47.696;8.068;2023-02-12T18:48:33;5.13;;;3.53;;
1751;SDS011;873;47.696;8.068;2023-02-12T18:51:00;5.33;;;3.90;;
1751;SDS011;873;47.696;8.068;2023-02-12T18:53:26;5.67;;;3.33;;